createdAt,value
2023-03-17T00:01:19.181Z,97344.38
2023-03-17T00:03:29.396Z,97333.69
2023-03-17T00:05:39.227Z,97337.41
2023-03-17T00:07:50.441Z,97331.59
2023-03-17T00:09:58.379Z,97332.50
2023-03-17T00:12:12.996Z,97334.53
2023-03-17T00:14:22.037Z,97329.22
2023-03-17T00:16:32.688Z,97320.16
2023-03-17T00:18:41.271Z,97321.81
2023-03-17T00:20:50.549Z,97313.13
2023-03-17T00:23:04.447Z,97313.03
2023-03-17T00:25:22.224Z,97304.63
2023-03-17T00:27:30.383Z,97309.09
2023-03-17T00:29:40.021Z,97306.13
2023-03-17T00:31:49.463Z,97304.66
2023-03-17T00:33:58.482Z,97305.41
2023-03-17T00:36:06.834Z,97296.28
2023-03-17T00:38:20.576Z,97296.22
2023-03-17T00:40:31.632Z,97298.44
2023-03-17T00:42:39.691Z,97292.22
2023-03-17T00:44:50.285Z,97293.41
2023-03-17T00:46:58.243Z,97293.25
2023-03-17T00:51:24.239Z,97286.84
2023-03-17T00:53:34.780Z,97290.53
2023-03-17T00:55:42.753Z,97285.06
2023-03-17T00:57:51.878Z,97284.31
2023-03-17T00:59:59.824Z,97275.63
2023-03-17T01:02:08.560Z,97280.06
2023-03-17T01:04:22.064Z,97273.25
2023-03-17T01:06:32.524Z,97271.34
2023-03-17T01:08:46.225Z,97273.91
2023-03-17T01:10:56.724Z,97270.50
2023-03-17T01:13:05.455Z,97265.38
2023-03-17T01:15:15.538Z,97258.00
2023-03-17T01:17:24.061Z,97254.56
2023-03-17T01:19:31.830Z,97247.00
2023-03-17T01:21:39.592Z,97244.09
2023-03-17T01:23:50.252Z,97238.13
2023-03-17T01:25:58.723Z,97253.13
2023-03-17T01:28:07.160Z,97252.13
2023-03-17T01:30:27.859Z,97250.06
2023-03-17T01:32:36.552Z,97256.19
2023-03-17T01:34:44.887Z,97259.44
2023-03-17T01:36:53.713Z,97247.69
2023-03-17T01:39:05.554Z,97251.56
2023-03-17T01:41:13.395Z,97246.13
2023-03-17T01:43:24.414Z,97248.25
2023-03-17T01:46:02.603Z,97246.47
2023-03-17T01:48:10.958Z,97238.97
2023-03-17T01:50:19.692Z,97241.00
2023-03-17T01:52:28.041Z,97243.38
2023-03-17T01:54:46.217Z,97241.00
2023-03-17T01:56:57.068Z,97241.75
2023-03-17T01:59:08.072Z,97232.66
2023-03-17T02:01:16.534Z,97237.22
2023-03-17T02:03:26.173Z,97231.19
2023-03-17T02:05:34.433Z,97231.25
2023-03-17T02:07:45.180Z,97221.59
2023-03-17T02:09:57.176Z,97220.88
2023-03-17T02:12:07.122Z,97214.81
2023-03-17T02:14:15.156Z,97214.72
2023-03-17T02:16:23.884Z,97221.31
2023-03-17T02:18:31.984Z,97221.56
2023-03-17T02:21:22.343Z,97223.25
2023-03-17T02:23:32.757Z,97225.97
2023-03-17T02:25:41.824Z,97227.16
2023-03-17T02:27:54.908Z,97227.84
2023-03-17T02:30:03.104Z,97228.72
2023-03-17T02:32:12.307Z,97219.22
2023-03-17T02:34:20.692Z,97225.00
2023-03-17T02:36:28.971Z,97232.94
2023-03-17T02:38:39.894Z,97230.25
2023-03-17T02:40:47.866Z,97225.47
2023-03-17T02:42:57.036Z,97230.97
2023-03-17T02:45:11.696Z,97227.94
2023-03-17T02:47:20.582Z,97231.66
2023-03-17T02:49:30.132Z,97231.06
2023-03-17T02:51:38.112Z,97220.75
2023-03-17T02:53:49.088Z,97218.56
2023-03-17T02:55:57.809Z,97225.94
2023-03-17T02:58:05.802Z,97227.03
2023-03-17T03:00:15.679Z,97223.38
2023-03-17T03:02:23.509Z,97224.31
2023-03-17T03:04:31.657Z,97221.03
2023-03-17T03:06:39.979Z,97217.81
2023-03-17T03:08:50.716Z,97207.28
2023-03-17T03:11:00.456Z,97200.44
2023-03-17T03:13:10.020Z,97199.50
2023-03-17T03:15:18.120Z,97202.59
2023-03-17T03:17:26.435Z,97210.81
2023-03-17T03:19:34.409Z,97202.56
2023-03-17T03:21:42.573Z,97195.88
2023-03-17T03:23:53.245Z,97190.91
2023-03-17T03:26:01.211Z,97191.84
2023-03-17T03:28:11.485Z,97192.22
2023-03-17T03:30:19.541Z,97190.53
2023-03-17T03:32:27.795Z,97196.50
2023-03-17T03:34:35.760Z,97201.78
2023-03-17T03:36:43.864Z,97202.38
2023-03-17T03:38:54.624Z,97204.94
2023-03-17T03:41:02.684Z,97200.22
2023-03-17T03:43:22.558Z,97201.91
2023-03-17T03:45:31.689Z,97206.25
2023-03-17T03:47:39.926Z,97201.97
2023-03-17T03:49:47.933Z,97201.53
2023-03-17T03:51:55.937Z,97201.75
2023-03-17T03:54:06.637Z,97212.31
2023-03-17T03:56:14.499Z,97209.19
2023-03-17T03:58:22.599Z,97206.56
2023-03-17T04:00:30.827Z,97209.41
2023-03-17T04:02:38.957Z,97204.00
2023-03-17T04:04:47.197Z,97204.75
2023-03-17T04:06:55.110Z,97199.91
2023-03-17T04:09:03.496Z,97205.59
2023-03-17T04:11:14.022Z,97207.16
2023-03-17T04:13:22.334Z,97196.78
2023-03-17T04:15:30.205Z,97198.78
2023-03-17T04:17:38.405Z,97195.53
2023-03-17T04:19:46.494Z,97189.72
2023-03-17T04:21:54.884Z,97184.84
2023-03-17T04:24:03.116Z,97197.41
2023-03-17T04:26:14.630Z,97196.72
2023-03-17T04:28:22.804Z,97191.59
2023-03-17T04:30:30.751Z,97193.16
2023-03-17T04:32:38.905Z,97192.63
2023-03-17T04:34:46.813Z,97194.75
2023-03-17T04:36:54.596Z,97196.66
2023-03-17T04:39:02.907Z,97186.94
2023-03-17T04:41:13.683Z,97190.63
2023-03-17T04:43:21.568Z,97184.50
2023-03-17T04:45:29.588Z,97183.66
2023-03-17T04:47:38.007Z,97177.69
2023-03-17T04:49:46.296Z,97179.34
2023-03-17T04:51:54.950Z,97178.84
2023-03-17T04:54:02.995Z,97174.94
2023-03-17T04:56:14.045Z,97176.72
2023-03-17T04:58:30.375Z,97166.47
2023-03-17T05:00:39.028Z,97164.56
2023-03-17T05:02:47.113Z,97162.19
2023-03-17T05:04:54.938Z,97163.28
2023-03-17T05:07:03.092Z,97169.53
2023-03-17T05:09:13.153Z,97162.44
2023-03-17T05:11:24.211Z,97166.06
2023-03-17T05:13:33.742Z,97158.25
2023-03-17T05:15:41.538Z,97165.41
2023-03-17T05:17:49.644Z,97155.63
2023-03-17T05:19:57.412Z,97153.97
2023-03-17T05:22:05.568Z,97151.50
2023-03-17T05:24:13.748Z,97151.34
2023-03-17T05:26:24.650Z,97154.78
2023-03-17T05:28:32.858Z,97155.31
2023-03-17T05:30:40.829Z,97155.47
2023-03-17T05:32:50.616Z,97152.19
2023-03-17T05:35:10.500Z,97157.81
2023-03-17T05:37:21.823Z,97158.75
2023-03-17T05:39:29.720Z,97166.63
2023-03-17T05:41:40.341Z,97164.84
2023-03-17T05:43:48.283Z,97169.03
2023-03-17T05:45:56.440Z,97178.44
2023-03-17T05:48:08.612Z,97175.72
2023-03-17T05:50:17.321Z,97180.56
2023-03-17T05:52:25.421Z,97175.66
2023-03-17T05:54:33.425Z,97180.69
2023-03-17T05:56:43.871Z,97182.81
2023-03-17T05:58:51.809Z,97179.03
2023-03-17T06:00:59.705Z,97182.00
2023-03-17T06:03:08.092Z,97176.09
2023-03-17T06:05:16.370Z,97175.25
2023-03-17T06:07:24.194Z,97174.31
2023-03-17T06:09:32.088Z,97171.38
2023-03-17T06:11:39.975Z,97176.97
2023-03-17T06:13:50.873Z,97172.78
2023-03-17T06:15:59.291Z,97175.66
2023-03-17T06:18:08.172Z,97162.34
2023-03-17T06:20:17.058Z,97160.25
2023-03-17T06:22:24.996Z,97166.72
2023-03-17T06:24:32.891Z,97190.72
2023-03-17T06:26:41.229Z,97197.19
2023-03-17T06:28:52.378Z,97193.50
2023-03-17T06:31:00.471Z,97195.53
2023-03-17T06:33:08.669Z,97201.47
2023-03-17T06:35:17.111Z,97206.78
2023-03-17T06:37:25.271Z,97220.81
2023-03-17T06:39:37.165Z,97218.53
2023-03-17T06:41:45.470Z,97217.31
2023-03-17T06:43:56.650Z,97216.53
2023-03-17T06:46:04.920Z,97225.19
2023-03-17T06:48:13.223Z,97241.53
2023-03-17T06:50:21.544Z,97244.31
2023-03-17T06:52:29.378Z,97256.94
2023-03-17T06:54:37.402Z,97253.66
2023-03-17T06:56:45.311Z,97253.78
2023-03-17T06:58:55.787Z,97250.66
2023-03-17T07:01:04.370Z,97249.53
2023-03-17T07:03:12.799Z,97256.06
2023-03-17T07:05:21.074Z,97262.75
2023-03-17T07:07:28.998Z,97270.25
2023-03-17T07:09:37.700Z,97291.72
2023-03-17T07:11:45.631Z,97291.72
2023-03-17T07:13:56.436Z,97300.50
2023-03-17T07:16:04.776Z,97294.72
2023-03-17T07:18:13.197Z,97287.31
2023-03-17T07:20:21.411Z,97295.84
2023-03-17T07:22:29.407Z,97316.81
2023-03-17T07:24:37.284Z,97310.69
2023-03-17T07:26:45.362Z,97316.16
2023-03-17T07:28:56.097Z,97319.81
2023-03-17T07:31:05.902Z,97314.44
2023-03-17T07:33:13.982Z,97293.66
2023-03-17T07:35:22.582Z,97276.09
2023-03-17T07:37:30.696Z,97267.00
2023-03-17T07:39:39.356Z,97262.63
2023-03-17T07:41:53.116Z,97259.13
2023-03-17T07:44:06.773Z,97254.72
2023-03-17T07:46:15.338Z,97244.16
2023-03-17T07:48:23.197Z,97248.53
2023-03-17T07:50:31.175Z,97240.00
2023-03-17T07:52:39.108Z,97240.69
2023-03-17T07:54:46.972Z,97240.66
2023-03-17T07:56:55.002Z,97239.97
2023-03-17T07:59:02.931Z,97231.75
2023-03-17T08:01:13.498Z,97228.84
2023-03-17T08:03:21.365Z,97224.22
2023-03-17T08:05:29.264Z,97229.03
2023-03-17T08:07:37.517Z,97221.94
2023-03-17T08:09:48.087Z,97217.06
2023-03-17T08:11:56.670Z,97202.63
2023-03-17T08:14:04.946Z,97205.63
2023-03-17T08:16:15.690Z,97210.03
2023-03-17T08:18:23.637Z,97216.09
2023-03-17T08:20:32.014Z,97220.19
2023-03-17T08:22:40.344Z,97220.19
2023-03-17T08:24:50.085Z,97220.56
2023-03-17T08:26:59.711Z,97215.25
2023-03-17T08:29:09.733Z,97224.69
2023-03-17T08:31:23.124Z,97227.84
2023-03-17T08:33:31.096Z,97220.63
2023-03-17T08:35:40.634Z,97222.22
2023-03-17T08:37:49.276Z,97218.84
2023-03-17T08:39:58.042Z,97218.91
2023-03-17T08:42:07.687Z,97220.88
2023-03-17T08:44:16.759Z,97205.81
2023-03-17T08:46:29.947Z,97192.03
2023-03-17T08:48:39.956Z,97182.38
2023-03-17T08:50:47.937Z,97191.97
2023-03-17T08:52:55.975Z,97192.13
2023-03-17T08:55:03.967Z,97189.34
2023-03-17T08:57:14.653Z,97185.97
2023-03-17T08:59:23.920Z,97190.19
2023-03-17T09:01:34.950Z,97189.06
2023-03-17T09:03:43.848Z,97179.69
2023-03-17T09:05:52.459Z,97189.81
2023-03-17T09:08:00.323Z,97192.88
2023-03-17T09:10:11.013Z,97197.06
2023-03-17T09:12:19.491Z,97196.88
2023-03-17T09:14:27.810Z,97190.47
2023-03-17T09:16:38.874Z,97192.78
2023-03-17T09:18:47.396Z,97187.63
2023-03-17T09:20:55.306Z,97186.84
2023-03-17T09:23:03.662Z,97184.59
2023-03-17T09:25:12.559Z,97195.41
2023-03-17T09:27:20.866Z,97192.44
2023-03-17T09:29:29.033Z,97196.97
2023-03-17T09:31:39.908Z,97211.34
2023-03-17T09:33:48.302Z,97221.63
2023-03-17T09:35:57.297Z,97237.34
2023-03-17T09:38:07.136Z,97246.41
2023-03-17T09:40:19.883Z,97270.78
2023-03-17T09:42:43.561Z,97284.81
2023-03-17T09:45:06.713Z,97291.81
2023-03-17T09:47:29.393Z,97271.78
2023-03-17T09:49:44.947Z,97271.34
2023-03-17T09:51:53.410Z,97276.78
2023-03-17T09:54:05.345Z,97282.84
2023-03-17T09:56:16.525Z,97277.44
2023-03-17T09:58:31.899Z,97285.81
2023-03-17T10:00:40.157Z,97282.88
2023-03-17T10:02:52.120Z,97272.72
2023-03-17T10:05:00.135Z,97267.63
2023-03-17T10:07:11.045Z,97265.69
2023-03-17T10:09:27.349Z,97257.34
2023-03-17T10:11:45.479Z,97248.97
2023-03-17T10:14:01.263Z,97253.28
2023-03-17T10:16:11.127Z,97267.56
2023-03-17T10:18:26.009Z,97270.97
2023-03-17T10:20:39.011Z,97266.16
2023-03-17T10:22:52.048Z,97255.88
2023-03-17T10:25:05.801Z,97248.28
2023-03-17T10:27:17.597Z,97247.63
2023-03-17T10:29:26.794Z,97244.69
2023-03-17T10:31:38.212Z,97225.84
2023-03-17T10:33:52.553Z,97226.88
2023-03-17T10:36:09.647Z,97232.56
2023-03-17T10:38:20.619Z,97228.91
2023-03-17T10:40:31.549Z,97224.53
2023-03-17T10:42:49.730Z,97220.28
2023-03-17T10:44:59.579Z,97233.31
2023-03-17T10:47:08.123Z,97228.06
2023-03-17T10:49:23.792Z,97228.75
2023-03-17T10:51:35.933Z,97216.78
2023-03-17T10:53:45.841Z,97214.41
2023-03-17T10:55:55.861Z,97208.50
2023-03-17T10:58:07.408Z,97205.63
2023-03-17T11:00:20.338Z,97214.91
2023-03-17T11:02:30.767Z,97208.59
2023-03-17T11:04:45.125Z,97213.84
2023-03-17T11:06:54.907Z,97204.44
2023-03-17T11:09:11.365Z,97210.34
2023-03-17T11:11:28.518Z,97195.41
2023-03-17T11:13:36.746Z,97183.00
2023-03-17T11:15:51.439Z,97195.38
2023-03-17T11:18:06.659Z,97188.19
2023-03-17T11:20:38.658Z,97172.78
2023-03-17T11:22:52.123Z,97169.72
2023-03-17T11:25:08.342Z,97163.66
2023-03-17T11:27:27.013Z,97159.81
2023-03-17T11:29:52.065Z,97153.84
2023-03-17T11:32:09.528Z,97148.09
2023-03-17T11:34:26.283Z,97161.44
2023-03-17T11:36:56.484Z,97154.13
2023-03-17T11:39:13.804Z,97153.38
2023-03-17T11:41:46.245Z,97146.22
2023-03-17T11:44:11.424Z,97146.00
2023-03-17T11:46:27.719Z,97142.47
2023-03-17T11:48:46.815Z,97137.81
2023-03-17T11:51:01.003Z,97136.66
2023-03-17T11:53:27.700Z,97147.63
2023-03-17T11:55:43.849Z,97143.34
2023-03-17T11:57:59.016Z,97148.22
2023-03-17T12:00:08.373Z,97142.13
2023-03-17T12:02:28.723Z,97142.00
2023-03-17T12:04:40.862Z,97146.56
2023-03-17T12:06:55.413Z,97142.34
2023-03-17T12:09:14.536Z,97135.22
2023-03-17T12:11:28.400Z,97141.09
2023-03-17T12:13:43.144Z,97140.34
2023-03-17T12:15:55.719Z,97139.25
2023-03-17T12:18:08.700Z,97141.03
2023-03-17T12:20:20.261Z,97132.16
2023-03-17T12:22:32.931Z,97134.72
2023-03-17T12:24:48.746Z,97141.75
2023-03-17T12:27:00.843Z,97140.88
2023-03-17T12:29:16.352Z,97134.09
2023-03-17T12:31:29.223Z,97131.31
2023-03-17T12:33:44.054Z,97133.03
2023-03-17T12:35:52.337Z,97127.09
2023-03-17T12:38:05.236Z,97132.84
2023-03-17T12:40:21.521Z,97120.94
2023-03-17T12:42:43.840Z,97120.56
2023-03-17T12:45:25.368Z,97135.50
2023-03-17T12:47:47.452Z,97127.34
2023-03-17T12:50:48.624Z,97118.94
2023-03-17T12:53:19.325Z,97123.63
2023-03-17T12:55:52.646Z,97126.66
2023-03-17T12:58:05.605Z,97117.09
2023-03-17T13:00:29.766Z,97103.03
2023-03-17T13:02:48.696Z,97105.41
2023-03-17T13:05:01.169Z,97106.09
2023-03-17T13:07:14.332Z,97118.69
2023-03-17T13:09:48.114Z,97107.38
2023-03-17T13:11:59.337Z,97117.19
2023-03-17T13:14:19.005Z,97097.06
2023-03-17T13:16:33.089Z,97099.81
2023-03-17T13:18:51.457Z,97098.91
2023-03-17T13:21:14.928Z,97079.06
2023-03-17T13:23:25.029Z,97077.97
2023-03-17T13:25:36.467Z,97098.88
2023-03-17T13:27:50.304Z,97090.91
2023-03-17T13:29:58.218Z,97085.09
2023-03-17T13:32:41.756Z,97086.03
2023-03-17T13:34:52.917Z,97084.03
2023-03-17T13:37:08.287Z,97066.75
2023-03-17T13:39:46.280Z,97057.81
2023-03-17T13:42:18.011Z,97062.53
2023-03-17T13:44:49.552Z,97061.78
2023-03-17T13:46:58.019Z,97063.19
2023-03-17T13:49:20.147Z,97050.53
2023-03-17T13:51:34.578Z,97061.22
2023-03-17T13:53:46.505Z,97054.19
2023-03-17T13:56:17.620Z,97065.63
2023-03-17T13:58:28.418Z,97069.19
2023-03-17T14:00:41.649Z,97054.13
2023-03-17T14:02:51.882Z,97055.03
2023-03-17T14:05:02.946Z,97053.47
2023-03-17T14:07:20.012Z,97045.22
2023-03-17T14:09:36.700Z,97040.69
2023-03-17T14:11:48.588Z,97035.16
2023-03-17T14:14:15.220Z,97035.16
2023-03-17T14:16:35.101Z,97033.78
2023-03-17T14:18:45.893Z,97032.47
2023-03-17T14:20:57.717Z,97028.22
2023-03-17T14:23:10.129Z,97026.06
2023-03-17T14:25:21.915Z,97018.41
2023-03-17T14:27:32.581Z,97020.88
2023-03-17T14:29:42.419Z,97022.22
2023-03-17T14:32:05.668Z,97019.16
2023-03-17T14:34:16.953Z,97020.44
2023-03-17T14:36:25.066Z,97012.25
2023-03-17T14:38:35.994Z,97011.50
2023-03-17T14:40:44.704Z,97016.91
2023-03-17T14:42:53.208Z,97009.03
2023-03-17T14:45:07.516Z,97004.22
2023-03-17T14:47:23.521Z,97011.41
2023-03-17T14:49:33.379Z,96996.28
2023-03-17T14:51:43.546Z,97001.50
2023-03-17T14:53:52.734Z,97005.84
2023-03-17T14:56:00.932Z,96988.63
2023-03-17T14:58:20.487Z,96990.66
2023-03-17T15:00:38.878Z,96991.75
2023-03-17T15:02:57.506Z,96979.97
2023-03-17T15:05:10.162Z,96981.63
2023-03-17T15:07:33.979Z,96979.28
2023-03-17T15:09:43.219Z,96974.56
2023-03-17T15:11:53.782Z,96967.47
2023-03-17T15:14:09.642Z,96980.34
2023-03-17T15:16:25.194Z,96977.78
2023-03-17T15:18:36.223Z,96987.34
2023-03-17T15:20:46.033Z,96982.03
2023-03-17T15:23:01.001Z,96979.97
2023-03-17T15:25:21.629Z,96978.81
2023-03-17T15:27:30.772Z,96981.41
2023-03-17T15:29:38.718Z,96984.28
2023-03-17T15:31:46.827Z,96985.78
2023-03-17T15:34:09.643Z,96977.38
2023-03-17T15:36:31.824Z,96982.81
2023-03-17T15:38:41.598Z,96982.31
2023-03-17T15:40:49.849Z,96974.41
2023-03-17T15:42:59.124Z,96973.25
2023-03-17T15:45:08.666Z,96966.72
2023-03-17T15:47:18.408Z,96960.16
2023-03-17T15:49:30.230Z,96966.03
2023-03-17T15:51:38.291Z,96968.59
2023-03-17T15:53:47.472Z,96955.97
2023-03-17T15:55:56.556Z,96960.19
2023-03-17T15:58:04.421Z,96958.34
2023-03-17T16:00:19.669Z,96957.03
2023-03-17T16:02:32.892Z,96950.94
2023-03-17T16:04:43.476Z,96945.41
2023-03-17T16:06:51.630Z,96949.13
2023-03-17T16:08:59.489Z,96943.41
2023-03-17T16:11:07.919Z,96940.41
2023-03-17T16:13:15.989Z,96938.06
2023-03-17T16:15:25.824Z,96939.88
2023-03-17T16:17:33.757Z,96940.00
2023-03-17T16:19:44.796Z,96940.53
2023-03-17T16:21:53.047Z,96936.13
2023-03-17T16:24:00.966Z,96928.41
2023-03-17T16:26:15.505Z,96921.84
2023-03-17T16:28:26.559Z,96922.50
2023-03-17T16:30:37.022Z,96916.28
2023-03-17T16:32:45.010Z,96920.13
2023-03-17T16:34:55.502Z,96918.63
2023-03-17T16:37:03.541Z,96908.84
2023-03-17T16:39:18.737Z,96909.66
2023-03-17T16:41:29.614Z,96912.81
2023-03-17T16:43:40.027Z,96917.63
2023-03-17T16:45:48.411Z,96914.22
2023-03-17T16:47:56.336Z,96912.31
2023-03-17T16:50:16.557Z,96910.41
2023-03-17T16:52:24.224Z,96921.78
2023-03-17T16:54:33.714Z,96918.59
2023-03-17T16:56:42.731Z,96919.28
2023-03-17T16:58:51.313Z,96925.75
2023-03-17T17:01:03.110Z,96923.13
2023-03-17T17:03:11.270Z,96924.16
2023-03-17T17:05:24.130Z,96927.38
2023-03-17T17:07:32.332Z,96926.97
2023-03-17T17:09:40.221Z,96924.38
2023-03-17T17:11:48.124Z,96925.66
2023-03-17T17:13:56.223Z,96920.09
2023-03-17T17:16:04.615Z,96925.13
2023-03-17T17:18:18.508Z,96919.97
2023-03-17T17:20:33.182Z,96919.97
2023-03-17T17:22:41.393Z,96914.22
2023-03-17T17:24:51.087Z,96929.09
2023-03-17T17:27:19.873Z,96932.38
2023-03-17T17:29:29.691Z,96934.41
2023-03-17T17:31:39.140Z,96935.66
2023-03-17T17:33:47.109Z,96929.84
2023-03-17T17:35:57.973Z,96927.88
2023-03-17T17:38:06.827Z,96931.09
2023-03-17T17:40:17.697Z,96934.09
2023-03-17T17:42:28.252Z,96937.56
2023-03-17T17:44:37.123Z,96947.03
2023-03-17T17:46:45.211Z,96941.31
2023-03-17T17:48:53.490Z,96948.81
2023-03-17T17:51:04.120Z,96937.28
2023-03-17T17:53:12.571Z,96937.56
2023-03-17T17:55:20.942Z,96949.41
2023-03-17T17:57:28.873Z,96953.94
2023-03-17T17:59:36.915Z,96956.44
2023-03-17T18:01:44.783Z,96963.63
2023-03-17T18:03:52.826Z,96957.84
2023-03-17T18:06:03.767Z,96962.78
2023-03-17T18:08:11.808Z,96967.88
2023-03-17T18:10:24.337Z,96967.88
2023-03-17T18:12:32.389Z,96976.44
2023-03-17T18:14:40.360Z,96979.69
2023-03-17T18:16:49.914Z,96977.72
2023-03-17T18:19:00.442Z,96992.47
2023-03-17T18:21:11.776Z,96987.53
2023-03-17T18:23:20.341Z,96993.13
2023-03-17T18:25:28.649Z,97000.88
2023-03-17T18:27:37.628Z,96995.34
2023-03-17T18:29:47.487Z,97012.69
2023-03-17T18:31:57.570Z,97003.25
2023-03-17T18:34:11.631Z,97010.34
2023-03-17T18:36:24.422Z,97008.78
2023-03-17T18:38:33.719Z,97019.88
2023-03-17T18:40:41.864Z,97011.72
2023-03-17T18:42:50.270Z,97017.91
2023-03-17T18:44:58.380Z,97026.25
2023-03-17T18:47:07.651Z,97014.56
2023-03-17T18:49:16.114Z,97019.50
2023-03-17T18:51:26.616Z,97022.00
2023-03-17T18:53:35.581Z,97022.00
2023-03-17T18:55:44.218Z,97016.25
2023-03-17T18:57:52.633Z,97022.69
2023-03-17T19:00:00.734Z,97028.03
2023-03-17T19:02:08.948Z,97027.25
2023-03-17T19:04:17.182Z,97033.16
2023-03-17T19:06:27.696Z,97030.44
2023-03-17T19:08:35.996Z,97037.16
2023-03-17T19:10:46.263Z,97031.13
2023-03-17T19:12:54.989Z,97036.97
2023-03-17T19:15:03.074Z,97038.75
2023-03-17T19:17:11.896Z,97034.25
2023-03-17T19:19:20.325Z,97049.00
2023-03-17T19:21:31.213Z,97041.06
2023-03-17T19:23:39.302Z,97041.38
2023-03-17T19:25:47.382Z,97031.03
2023-03-17T19:27:56.340Z,97034.22
2023-03-17T19:30:04.321Z,97038.31
2023-03-17T19:32:12.636Z,97037.72
2023-03-17T19:34:20.821Z,97037.88
2023-03-17T19:36:37.836Z,97039.84
2023-03-17T19:38:45.859Z,97043.25
2023-03-17T19:40:54.144Z,97051.28
2023-03-17T19:43:02.360Z,97047.75
2023-03-17T19:45:11.694Z,97051.00
2023-03-17T19:47:20.490Z,97041.34
2023-03-17T19:49:28.351Z,97050.25
2023-03-17T19:51:39.438Z,97050.13
2023-03-17T19:53:47.480Z,97049.00
2023-03-17T19:55:55.637Z,97040.19
2023-03-17T19:58:05.764Z,97040.28
2023-03-17T20:00:15.147Z,97044.75
2023-03-17T20:02:23.664Z,97043.03
2023-03-17T20:04:31.579Z,97051.47
2023-03-17T20:06:42.100Z,97050.19
2023-03-17T20:08:50.023Z,97053.03
2023-03-17T20:10:58.125Z,97049.34
2023-03-17T20:13:06.559Z,97043.16
2023-03-17T20:15:16.500Z,97036.47
2023-03-17T20:17:24.348Z,97031.25
2023-03-17T20:19:32.691Z,97036.75
2023-03-17T20:21:43.494Z,97049.34
2023-03-17T20:23:51.693Z,97052.00
2023-03-17T20:25:59.822Z,97051.38
2023-03-17T20:28:08.450Z,97043.03
2023-03-17T20:30:16.626Z,97042.69
2023-03-17T20:32:24.581Z,97043.31
2023-03-17T20:34:33.426Z,97043.09
2023-03-17T20:36:49.186Z,97042.38
2023-03-17T20:38:58.664Z,97048.94
2023-03-17T20:41:11.787Z,97050.63
2023-03-17T20:43:19.909Z,97058.69
2023-03-17T20:45:28.634Z,97062.56
2023-03-17T20:47:36.935Z,97065.78
2023-03-17T20:49:45.929Z,97068.75
2023-03-17T20:51:56.428Z,97065.81
2023-03-17T20:54:05.113Z,97065.56
2023-03-17T20:56:15.803Z,97071.34
2023-03-17T20:58:24.243Z,97074.41
2023-03-17T21:00:33.437Z,97078.44
2023-03-17T21:02:42.128Z,97079.03
2023-03-17T21:04:50.612Z,97075.00
2023-03-17T21:07:01.120Z,97073.25
2023-03-17T21:09:09.581Z,97075.00
2023-03-17T21:11:21.034Z,97065.47
2023-03-17T21:13:29.202Z,97057.00
2023-03-17T21:15:37.071Z,97058.25
2023-03-17T21:17:45.265Z,97057.66
2023-03-17T21:19:54.700Z,97056.22
2023-03-17T21:22:05.387Z,97064.91
2023-03-17T21:24:27.621Z,97059.59
2023-03-17T21:26:38.405Z,97065.28
2023-03-17T21:28:47.692Z,97070.75
2023-03-17T21:30:55.668Z,97061.78
2023-03-17T21:33:03.871Z,97066.28
2023-03-17T21:35:12.846Z,97067.06
2023-03-17T21:37:36.831Z,97071.06
2023-03-17T21:39:44.820Z,97063.91
2023-03-17T21:41:54.595Z,97064.78
2023-03-17T21:44:02.879Z,97055.34
2023-03-17T21:46:11.860Z,97056.88
2023-03-17T21:48:22.302Z,97058.06
2023-03-17T21:50:31.034Z,97057.09
2023-03-17T21:52:41.666Z,97054.94
2023-03-17T21:54:49.505Z,97062.47
2023-03-17T21:56:57.527Z,97057.53
2023-03-17T21:59:06.639Z,97058.69
2023-03-17T22:01:14.880Z,97057.06
2023-03-17T22:03:22.965Z,97063.25
2023-03-17T22:05:31.149Z,97072.06
2023-03-17T22:07:41.629Z,97065.78
2023-03-17T22:09:49.700Z,97069.16
2023-03-17T22:11:57.942Z,97069.28
2023-03-17T22:14:08.724Z,97073.88
2023-03-17T22:16:18.426Z,97073.16
2023-03-17T22:18:27.222Z,97073.25
2023-03-17T22:20:35.051Z,97075.22
2023-03-17T22:22:45.673Z,97075.44
2023-03-17T22:24:53.811Z,97074.22
2023-03-17T22:27:01.898Z,97078.94
2023-03-17T22:29:09.844Z,97077.59
2023-03-17T22:31:19.892Z,97073.88
2023-03-17T22:33:28.445Z,97089.72
2023-03-17T22:35:36.672Z,97089.84
2023-03-17T22:37:47.464Z,97100.13
2023-03-17T22:39:55.489Z,97104.88
2023-03-17T22:42:03.887Z,97105.34
2023-03-17T22:44:14.244Z,97106.44
2023-03-17T22:46:22.836Z,97114.56
2023-03-17T22:48:32.376Z,97109.59
2023-03-17T22:50:40.476Z,97113.56
2023-03-17T22:52:51.861Z,97116.81
2023-03-17T22:54:59.950Z,97116.47
2023-03-17T22:57:08.153Z,97119.63
2023-03-17T22:59:16.161Z,97125.78
2023-03-17T23:01:25.974Z,97122.00
2023-03-17T23:03:34.100Z,97119.47
2023-03-17T23:05:42.043Z,97119.47
2023-03-17T23:07:52.695Z,97120.22
2023-03-17T23:10:00.603Z,97120.56
2023-03-17T23:12:09.183Z,97125.41
2023-03-17T23:14:17.188Z,97128.34
2023-03-17T23:16:25.912Z,97125.56
2023-03-17T23:18:34.229Z,97129.91
2023-03-17T23:20:42.847Z,97128.81
2023-03-17T23:22:54.019Z,97134.59
2023-03-17T23:25:01.899Z,97129.41
2023-03-17T23:27:09.907Z,97145.38
2023-03-17T23:29:17.822Z,97147.44
2023-03-17T23:31:26.511Z,97141.75
2023-03-17T23:33:34.449Z,97144.66
2023-03-17T23:35:42.975Z,97151.53
2023-03-17T23:37:53.491Z,97147.56
2023-03-17T23:40:01.997Z,97145.38
2023-03-17T23:42:10.146Z,97158.00
2023-03-17T23:44:18.204Z,97150.50
2023-03-17T23:46:27.315Z,97160.31
2023-03-17T23:48:35.738Z,97160.66
2023-03-17T23:50:44.251Z,97153.50
2023-03-17T23:52:54.810Z,97151.56
2023-03-17T23:55:03.221Z,97159.25
2023-03-17T23:57:11.156Z,97160.50
2023-03-17T23:59:19.137Z,97157.22
